Карточка аэропорта UAAA

Внимание!
Информация на этой странице в стадии наполнения.
Если вы не увидели какой-то информации, или заметили неточность - пожалуйста сообщите нам!
Спасибо!
Команда XR-STAFF
Название аэропортаАлматы
Название аэропорта (англ.)Almaty
Превышение2238 ft. (682.1 m.)
Координаты43°21.072', 77°1.5960000000001'
Высота перехода10000ft
Эшелон переходаFL120, QNH<733:FL130
Коды ответчика3501-3517, 3401-3427
Зона ОрВДАлматы РПИ (UAAA)
Данные METARUAAA 171630Z 21003MPS 170V240 9999 SCT050CB BKN100 18/09 Q1012 NOSIG
Проноз погоды (TAF)UAAA 171101Z 1712/1812 18003MPS 9999 SCT050CB BKN100 TX28/1809Z TN12/1801Z TEMPO 1712/1714 32003G08MPS PROB40 TEMPO 1712/1714 -TSRA BECMG 1802/1803 03003MPS BECMG 1808/1809 24003G08MPS BKN030CB BKN100
NOTAMshow/hide NOTAM
AWOS   TABLE

Информация о ВПП

ВПП Длина ВПП (м.) Покрытие Курс ВПП Частота ILS
05L4500Бетон51109.1
05R4400Асфальтобетон51110.3
23R4500Бетон231111.3
23L4400Асфальтобетон231108.1

Диспетчерские позиции

Позывной Наименование органа УВД Частота
UAAA_APPАлматы-Подход124.8
UAAA_TWRАлматы-Вышка119.4
UAAA_GNDАлматы-Руление121.7
UAAA_R_APPАлматы-Круг120.8



Спутниковое изображение